createdAt,value
2022-12-31T00:03:19.519Z,55.20
2022-12-31T00:08:21.933Z,55.30
2022-12-31T00:13:24.235Z,55.30
2022-12-31T00:18:27.063Z,55.30
2022-12-31T00:23:29.329Z,55.30
2022-12-31T00:28:31.804Z,55.10
2022-12-31T00:33:34.095Z,55.20
2022-12-31T00:38:37.705Z,55.20
2022-12-31T00:43:40.348Z,55.10
2022-12-31T00:48:43.096Z,55.30
2022-12-31T00:53:46.288Z,55.20
2022-12-31T00:58:48.628Z,55.20
2022-12-31T01:03:55.181Z,55.60
2022-12-31T01:08:57.557Z,55.90
2022-12-31T01:19:13.537Z,55.80
2022-12-31T01:24:16.487Z,56.10
2022-12-31T01:29:18.813Z,56.50
2022-12-31T01:34:21.175Z,56.40
2022-12-31T01:39:23.412Z,56.60
2022-12-31T01:54:55.451Z,56.40
2022-12-31T02:00:00.340Z,56.60
2022-12-31T02:05:11.825Z,56.40
2022-12-31T02:10:14.047Z,56.50
2022-12-31T02:15:16.903Z,56.60
2022-12-31T02:20:46.590Z,57.00
2022-12-31T02:31:17.064Z,57.30
2022-12-31T02:36:24.272Z,56.80
2022-12-31T02:41:46.473Z,57.10
2022-12-31T02:47:15.356Z,57.20
2022-12-31T03:02:46.792Z,57.70
2022-12-31T03:07:49.189Z,57.90
2022-12-31T03:12:51.689Z,58.00
2022-12-31T03:23:12.283Z,58.20
2022-12-31T03:28:17.601Z,58.20
2022-12-31T03:33:20.715Z,58.20
2022-12-31T03:38:23.090Z,58.60
2022-12-31T03:43:25.322Z,58.50
2022-12-31T03:48:27.739Z,58.20
2022-12-31T03:53:30.394Z,58.10
2022-12-31T03:58:32.646Z,58.00
2022-12-31T04:03:35.052Z,57.90
2022-12-31T04:08:37.254Z,58.20
2022-12-31T04:13:39.558Z,58.10
2022-12-31T04:18:41.815Z,58.20
2022-12-31T04:23:44.103Z,57.80
2022-12-31T04:28:46.391Z,58.20
2022-12-31T04:33:48.627Z,58.00
2022-12-31T04:38:50.887Z,58.20
2022-12-31T04:43:56.109Z,57.90
2022-12-31T04:48:58.853Z,57.90
2022-12-31T04:54:01.413Z,57.50
2022-12-31T04:59:05.188Z,58.40
2022-12-31T05:04:07.402Z,57.60
2022-12-31T05:09:09.662Z,57.70
2022-12-31T05:14:11.900Z,57.60
2022-12-31T05:19:15.359Z,57.60
2022-12-31T05:24:17.622Z,57.70
2022-12-31T05:29:19.949Z,57.60
2022-12-31T05:34:22.219Z,57.50
2022-12-31T05:39:24.490Z,57.70
2022-12-31T05:44:26.953Z,57.60
2022-12-31T05:49:29.197Z,57.70
2022-12-31T05:54:31.698Z,57.90
2022-12-31T05:59:34.601Z,58.20
2022-12-31T06:05:06.336Z,58.30
2022-12-31T06:10:09.191Z,58.20
2022-12-31T06:15:11.722Z,58.70
2022-12-31T06:20:13.943Z,58.40
2022-12-31T06:25:16.326Z,58.90
2022-12-31T06:30:18.690Z,58.60
2022-12-31T06:35:21.223Z,59.00
2022-12-31T06:40:23.749Z,58.90
2022-12-31T06:45:26.017Z,59.10
2022-12-31T06:50:28.250Z,59.50
2022-12-31T06:55:30.956Z,59.60
2022-12-31T07:00:33.519Z,59.80
2022-12-31T07:11:02.212Z,60.10
2022-12-31T07:16:25.988Z,60.10
2022-12-31T07:21:35.610Z,60.40
2022-12-31T07:27:17.547Z,60.20
2022-12-31T07:43:15.830Z,60.60
2022-12-31T07:48:24.141Z,60.90
2022-12-31T07:53:27.055Z,61.20
2022-12-31T08:14:15.880Z,65.80
2022-12-31T08:30:06.187Z,58.80
2022-12-31T08:45:43.766Z,55.00
2022-12-31T08:50:46.483Z,53.20
2022-12-31T08:55:53.052Z,51.70
2022-12-31T09:00:57.805Z,51.50
2022-12-31T09:12:04.504Z,49.70
2022-12-31T09:22:39.819Z,48.10
2022-12-31T09:27:58.291Z,46.50
2022-12-31T09:54:29.362Z,47.90
2022-12-31T10:15:45.701Z,47.50
2022-12-31T10:31:39.282Z,48.10
2022-12-31T10:37:05.692Z,48.10
2022-12-31T10:42:47.842Z,49.00
2022-12-31T11:04:11.721Z,48.00
2022-12-31T11:20:07.873Z,47.80
2022-12-31T11:41:10.176Z,48.80
2022-12-31T11:57:37.515Z,48.70
2022-12-31T12:02:45.840Z,49.50
2022-12-31T12:07:52.128Z,48.80
2022-12-31T12:12:56.880Z,48.50
2022-12-31T12:18:06.702Z,49.20
2022-12-31T12:23:26.287Z,48.80
2022-12-31T12:28:31.621Z,49.00
2022-12-31T12:33:44.833Z,47.80
2022-12-31T12:38:47.375Z,49.00
2022-12-31T12:43:49.858Z,49.00
2022-12-31T12:48:56.898Z,49.20
2022-12-31T12:54:27.786Z,48.90
2022-12-31T13:15:22.366Z,49.30
2022-12-31T13:20:48.989Z,48.70
2022-12-31T13:26:16.643Z,48.40
2022-12-31T13:31:26.493Z,48.30
2022-12-31T13:36:32.827Z,49.20
2022-12-31T13:41:41.749Z,49.80
2022-12-31T13:57:37.525Z,51.10
2022-12-31T14:07:54.694Z,52.10
2022-12-31T14:18:27.380Z,53.20
2022-12-31T14:23:56.375Z,53.70
2022-12-31T14:50:17.733Z,54.80
2022-12-31T15:05:53.704Z,55.90
2022-12-31T15:26:57.539Z,54.80
2022-12-31T15:32:03.772Z,55.40
2022-12-31T15:37:27.685Z,54.80
2022-12-31T15:42:47.257Z,54.60
2022-12-31T15:47:58.366Z,54.60
2022-12-31T15:53:03.727Z,54.40
2022-12-31T15:58:12.395Z,54.20
2022-12-31T16:03:25.753Z,54.10
2022-12-31T16:08:31.963Z,54.00
2022-12-31T16:13:39.429Z,53.90
2022-12-31T16:18:43.825Z,53.80
2022-12-31T16:23:51.775Z,53.70
2022-12-31T16:29:00.002Z,53.60
2022-12-31T16:34:05.274Z,53.50
2022-12-31T16:39:24.861Z,53.50
2022-12-31T16:44:29.823Z,53.40
2022-12-31T16:49:35.157Z,53.40
2022-12-31T16:54:40.432Z,53.50
2022-12-31T17:16:20.630Z,52.30
2022-12-31T17:21:27.467Z,54.60
2022-12-31T17:26:32.776Z,54.20
2022-12-31T17:31:59.665Z,54.10
2022-12-31T17:37:25.775Z,54.10
2022-12-31T17:42:34.565Z,54.40
2022-12-31T17:47:40.527Z,54.00
2022-12-31T17:52:42.795Z,53.90
2022-12-31T17:57:52.714Z,53.80
2022-12-31T18:02:55.068Z,53.60
2022-12-31T18:07:57.315Z,53.50
2022-12-31T18:13:01.579Z,53.40
2022-12-31T18:18:24.777Z,53.40
2022-12-31T18:23:31.271Z,53.40
2022-12-31T18:28:33.568Z,53.50
2022-12-31T18:33:35.772Z,53.50
2022-12-31T18:38:38.004Z,53.60
2022-12-31T18:43:40.231Z,53.70
2022-12-31T18:48:42.980Z,53.70
2022-12-31T18:53:45.563Z,53.70
2022-12-31T18:58:48.290Z,53.80
2022-12-31T19:03:50.544Z,53.80
2022-12-31T19:08:52.846Z,53.80
2022-12-31T19:13:55.131Z,53.70
2022-12-31T19:18:57.430Z,53.90
2022-12-31T19:23:59.628Z,53.80
2022-12-31T19:29:01.927Z,53.90
2022-12-31T19:34:04.190Z,54.20
2022-12-31T19:39:10.211Z,54.20
2022-12-31T19:44:16.235Z,54.20
2022-12-31T19:49:18.625Z,54.30
2022-12-31T19:54:20.873Z,54.20
2022-12-31T19:59:23.128Z,54.30
2022-12-31T20:04:25.417Z,54.20
2022-12-31T20:09:27.665Z,54.30
2022-12-31T20:14:30.063Z,54.20
2022-12-31T20:19:32.295Z,54.20
2022-12-31T20:24:34.488Z,54.20
2022-12-31T20:29:37.378Z,54.30
2022-12-31T20:34:39.656Z,54.30
2022-12-31T20:39:42.746Z,54.40
2022-12-31T20:44:44.977Z,54.40
2022-12-31T20:50:12.816Z,54.40
2022-12-31T20:55:10.303Z,54.40
2022-12-31T21:00:14.908Z,54.40
2022-12-31T21:05:17.413Z,54.30
2022-12-31T21:10:19.806Z,54.40
2022-12-31T21:15:22.129Z,54.40
2022-12-31T21:20:24.409Z,54.30
2022-12-31T21:25:26.618Z,54.40
2022-12-31T21:30:28.903Z,54.50
2022-12-31T21:35:43.476Z,54.50
2022-12-31T21:40:47.850Z,54.50
2022-12-31T21:46:00.671Z,54.40
2022-12-31T21:51:09.659Z,54.50
2022-12-31T21:56:14.564Z,54.50
2022-12-31T22:01:40.590Z,54.50
2022-12-31T22:06:43.047Z,54.50
2022-12-31T22:11:45.370Z,54.40
2022-12-31T22:16:47.570Z,54.50
2022-12-31T22:21:49.820Z,54.50
2022-12-31T22:26:54.220Z,54.50
2022-12-31T22:32:00.997Z,54.50
2022-12-31T22:37:20.339Z,54.50
2022-12-31T22:42:25.769Z,54.50
2022-12-31T22:47:27.992Z,55.00
2022-12-31T22:52:30.975Z,54.40
2022-12-31T22:57:33.312Z,54.40
2022-12-31T23:02:41.371Z,54.50
2022-12-31T23:07:44.136Z,54.40
2022-12-31T23:12:46.395Z,54.60
2022-12-31T23:18:08.574Z,54.40
2022-12-31T23:23:16.282Z,54.70
2022-12-31T23:28:22.011Z,54.70
2022-12-31T23:33:25.890Z,54.70
2022-12-31T23:38:28.166Z,54.60
2022-12-31T23:43:30.415Z,54.90
2022-12-31T23:48:32.661Z,54.90
2022-12-31T23:53:36.937Z,54.70
2022-12-31T23:58:39.178Z,54.90
